M I D A S
Marine Information and Data Acquisition System
Tripno 2286 of the Zeeleeuw from 2012-04-10 06:58:58 to 2012-04-10 14:41:08
Back to CruiseResearch ActivitiesStationsMapUnderway DataData graphs

EquipmentUnitsComment
TimeDGPSUTC
LatitudeDGPSDM.mWGS84
LongitudeDGPSDM.mWGS84
HeadingGyrodeg 
SOGDGPSknotsSpeed over ground
COGDGPSdegCourse over ground
DepthEcho soundermeters200 kHz
Missing or incorrect values are displayed as -999
Navigation data collected by the RV Zeeleeuw from 2012-04-10 06:36:12 to 2012-04-10 14:52:26
                                                                                    Next 1000 lines
Time Latitude Longitude Heading SOG COG Depth
2012-04-10 06:36:23 51°13.634 2°56.019 125.7 0.5 63 -999
2012-04-10 06:36:28 51°13.634 2°56.017 125.6 0.1 69 -999
2012-04-10 06:36:33 51°13.634 2°56.017 125.5 -999 155 -999
2012-04-10 06:36:37 51°13.634 2°56.017 125.5 -999 121 -999
2012-04-10 06:36:42 51°13.634 2°56.016 125.5 -999 120 -999
2012-04-10 06:36:47 51°13.634 2°56.016 125.5 -999 282 -999
2012-04-10 06:36:52 51°13.634 2°56.015 125.5 -999 312 -999
2012-04-10 06:36:57 51°13.635 2°56.016 125.5 -999 10 -999
2012-04-10 06:37:02 51°13.635 2°56.016 125.5 -999 53 -999
2012-04-10 06:37:07 51°13.635 2°56.016 125.5 -999 131 -999
2012-04-10 06:37:12 51°13.635 2°56.016 125.5 -999 114 -999
2012-04-10 06:37:17 51°13.635 2°56.016 125.5 0.1 110 -999
2012-04-10 06:37:23 51°13.635 2°56.016 125.5 -999 314 -999
2012-04-10 06:37:28 51°13.635 2°56.016 125.5 -999 81 -999
2012-04-10 06:37:33 51°13.635 2°56.016 125.5 0.1 117 -999
2012-04-10 06:37:38 51°13.635 2°56.016 125.5 -999 107 -999
2012-04-10 06:37:43 51°13.635 2°56.016 125.5 -999 40 -999
2012-04-10 06:37:48 51°13.635 2°56.016 125.5 -999 15 -999
2012-04-10 06:37:53 51°13.635 2°56.016 125.5 -999 126 -999
2012-04-10 06:37:58 51°13.635 2°56.016 125.5 0.1 128 -999
2012-04-10 06:38:03 51°13.635 2°56.016 125.5 -999 4 -999
2012-04-10 06:38:08 51°13.635 2°56.016 125.5 0.1 304 -999
2012-04-10 06:38:12 51°13.635 2°56.015 125.5 0.1 321 -999
2012-04-10 06:38:17 51°13.635 2°56.016 125.5 -999 112 -999
2012-04-10 06:38:22 51°13.635 2°56.016 125.5 0.1 128 -999
2012-04-10 06:38:27 51°13.635 2°56.016 125.5 0.1 132 -999
2012-04-10 06:38:32 51°13.635 2°56.016 125.5 -999 127 -999
2012-04-10 06:38:37 51°13.636 2°56.015 125.5 -999 134 -999
2012-04-10 06:38:43 51°13.636 2°56.015 125.5 -999 128 -999
2012-04-10 06:38:47 51°13.636 2°56.015 125.5 -999 118 -999
2012-04-10 06:38:53 51°13.636 2°56.015 125.5 -999 293 -999
2012-04-10 06:38:58 51°13.636 2°56.015 125.5 -999 144 -999
2012-04-10 06:39:02 51°13.636 2°56.015 125.5 -999 168 -999
2012-04-10 06:39:07 51°13.636 2°56.015 125.5 -999 110 -999
2012-04-10 06:39:13 51°13.635 2°56.015 125.4 0.1 154 -999
2012-04-10 06:39:17 51°13.635 2°56.015 125.4 -999 183 -999
2012-04-10 06:39:23 51°13.635 2°56.015 125.4 -999 308 -999
2012-04-10 06:39:28 51°13.635 2°56.014 125.4 -999 348 -999
2012-04-10 06:39:32 51°13.635 2°56.014 125.4 -999 311 -999
2012-04-10 06:39:37 51°13.635 2°56.014 125.4 -999 158 -999
2012-04-10 06:39:42 51°13.635 2°56.014 125.4 -999 129 -999
2012-04-10 06:39:47 51°13.635 2°56.014 125.4 -999 337 -999
2012-04-10 06:39:52 51°13.635 2°56.014 125.4 0.1 324 -999
2012-04-10 06:39:57 51°13.635 2°56.014 125.4 0.1 317 -999
2012-04-10 06:40:02 51°13.635 2°56.014 125.4 -999 271 -999
2012-04-10 06:40:07 51°13.635 2°56.014 125.4 0.1 309 -999
2012-04-10 06:40:12 51°13.635 2°56.014 125.4 0.1 314 -999
2012-04-10 06:40:18 51°13.635 2°56.014 125.4 0.1 317 -999
2012-04-10 06:40:23 51°13.635 2°56.014 125.4 -999 286 -999
2012-04-10 06:40:28 51°13.635 2°56.015 125.4 0.1 133 -999
2012-04-10 06:40:33 51°13.635 2°56.015 125.4 0.1 144 -999
2012-04-10 06:40:38 51°13.636 2°56.014 125.4 0.3 293 -999
2012-04-10 06:40:43 51°13.635 2°56.014 125.4 -999 259 -999
2012-04-10 06:40:48 51°13.635 2°56.014 125.4 0.1 291 -999
2012-04-10 06:40:53 51°13.636 2°56.014 125.4 0.2 304 -999
2012-04-10 06:40:58 51°13.635 2°56.014 125.4 -999 152 -999
2012-04-10 06:41:02 51°13.635 2°56.014 125.4 0.1 112 -999
2012-04-10 06:41:08 51°13.635 2°56.014 125.3 -999 63 -999
2012-04-10 06:41:12 51°13.635 2°56.013 125.3 0.2 300 -999
2012-04-10 06:41:17 51°13.635 2°56.014 125.3 -999 53 -999
2012-04-10 06:41:22 51°13.635 2°56.014 125.3 0.1 336 -999
2012-04-10 06:41:27 51°13.635 2°56.014 125.3 0.1 316 -999
2012-04-10 06:41:32 51°13.635 2°56.014 125.3 -999 271 -999
2012-04-10 06:41:37 51°13.635 2°56.014 125.3 -999 253 -999
2012-04-10 06:41:42 51°13.635 2°56.015 125.3 0.1 146 -999
2012-04-10 06:41:48 51°13.635 2°56.014 125.3 0.1 349 -999
2012-04-10 06:41:53 51°13.635 2°56.014 125.3 -999 44 -999
2012-04-10 06:41:58 51°13.635 2°56.014 125.3 0.1 345 -999
2012-04-10 06:42:03 51°13.635 2°56.014 125.3 0.1 333 -999
2012-04-10 06:42:08 51°13.635 2°56.015 125.3 -999 320 -999
2012-04-10 06:42:13 51°13.635 2°56.015 125.3 0.3 120 -999
2012-04-10 06:42:18 51°13.635 2°56.014 125.3 0.1 312 -999
2012-04-10 06:42:23 51°13.635 2°56.015 125.3 0.1 314 -999
2012-04-10 06:42:28 51°13.635 2°56.015 125.3 -999 224 -999
2012-04-10 06:42:33 51°13.635 2°56.015 125.3 0.1 283 -999
2012-04-10 06:42:38 51°13.635 2°56.016 125.3 0.1 122 -999
2012-04-10 06:42:43 51°13.635 2°56.016 125.3 0.1 119 -999
2012-04-10 06:42:47 51°13.635 2°56.016 125.3 -999 104 -999
2012-04-10 06:42:52 51°13.635 2°56.016 125.3 -999 144 -999
2012-04-10 06:42:57 51°13.635 2°56.016 125.3 -999 122 -999
2012-04-10 06:43:03 51°13.635 2°56.016 125.3 0.1 192 -999
2012-04-10 06:43:07 51°13.635 2°56.016 125.3 0.1 185 -999
2012-04-10 06:43:12 51°13.635 2°56.016 125.3 -999 96 -999
2012-04-10 06:43:17 51°13.635 2°56.016 125.3 -999 31 -999
2012-04-10 06:43:22 51°13.635 2°56.016 125.3 -999 41 -999
2012-04-10 06:43:27 51°13.635 2°56.016 125.3 -999 77 -999
2012-04-10 06:43:32 51°13.635 2°56.016 125.2 -999 268 -999
2012-04-10 06:43:37 51°13.635 2°56.016 125.2 -999 202 -999
2012-04-10 06:43:42 51°13.635 2°56.017 125.1 -999 214 -999
2012-04-10 06:43:47 51°13.635 2°56.017 125.1 -999 157 -999
2012-04-10 06:43:51 51°13.636 2°56.017 125 0.1 61 -999
2012-04-10 06:43:58 51°13.636 2°56.017 124.9 -999 318 -999
2012-04-10 06:44:03 51°13.636 2°56.017 124.9 -999 359 -999
2012-04-10 06:44:08 51°13.636 2°56.017 124.8 -999 181 -999
2012-04-10 06:44:13 51°13.636 2°56.017 124.8 -999 197 -999
2012-04-10 06:44:18 51°13.636 2°56.017 124.8 -999 63 -999
2012-04-10 06:44:23 51°13.636 2°56.017 124.8 -999 349 -999
2012-04-10 06:44:29 51°13.636 2°56.017 124.9 -999 49 -999
2012-04-10 06:44:33 51°13.636 2°56.017 124.9 -999 152 -999
2012-04-10 06:44:38 51°13.636 2°56.017 124.9 -999 148 -999
2012-04-10 06:44:43 51°13.636 2°56.017 124.9 -999 130 -999
2012-04-10 06:44:49 51°13.636 2°56.017 125 -999 131 -999
2012-04-10 06:44:53 51°13.636 2°56.017 125 -999 133 -999
2012-04-10 06:44:58 51°13.636 2°56.017 125 -999 126 -999
2012-04-10 06:45:03 51°13.636 2°56.017 125 -999 137 -999
2012-04-10 06:45:08 51°13.636 2°56.016 125 -999 132 -999
2012-04-10 06:45:14 51°13.636 2°56.017 125 -999 140 -999
2012-04-10 06:45:18 51°13.636 2°56.017 125 -999 135 -999
2012-04-10 06:45:23 51°13.636 2°56.016 125 -999 105 -999
2012-04-10 06:45:28 51°13.636 2°56.015 125 -999 73 -999
2012-04-10 06:45:33 51°13.636 2°56.015 125 -999 88 -999
2012-04-10 06:45:38 51°13.636 2°56.015 125 -999 87 -999
2012-04-10 06:45:43 51°13.636 2°56.015 125 -999 124 -999
2012-04-10 06:45:48 51°13.636 2°56.015 125.1 -999 77 -999
2012-04-10 06:45:53 51°13.636 2°56.016 125.2 -999 75 -999
2012-04-10 06:45:58 51°13.636 2°56.016 125.2 -999 155 -999
2012-04-10 06:46:03 51°13.636 2°56.016 125.3 -999 84 -999
2012-04-10 06:46:08 51°13.637 2°56.017 125.3 -999 104 -999
2012-04-10 06:46:14 51°13.637 2°56.017 125.3 -999 31 -999
2012-04-10 06:46:18 51°13.637 2°56.017 125.3 -999 23 -999
2012-04-10 06:46:23 51°13.637 2°56.017 125.3 -999 191 -999
2012-04-10 06:46:29 51°13.637 2°56.017 125.3 -999 12 -999
2012-04-10 06:46:34 51°13.637 2°56.017 125.2 -999 1 -999
2012-04-10 06:46:39 51°13.637 2°56.017 125.2 -999 14 -999
2012-04-10 06:46:44 51°13.637 2°56.017 125.1 0.1 204 -999
2012-04-10 06:46:48 51°13.637 2°56.017 125.1 0.1 202 -999
2012-04-10 06:46:54 51°13.637 2°56.017 125.1 -999 339 -999
2012-04-10 06:46:59 51°13.637 2°56.017 125.1 -999 154 -999
2012-04-10 06:47:04 51°13.637 2°56.017 125.1 -999 163 -999
2012-04-10 06:47:08 51°13.637 2°56.017 125.1 -999 63 -999
2012-04-10 06:47:14 51°13.638 2°56.017 125.1 -999 125 -999
2012-04-10 06:47:19 51°13.638 2°56.017 125 -999 145 -999
2012-04-10 06:47:24 51°13.638 2°56.017 125 -999 184 -999
2012-04-10 06:47:28 51°13.638 2°56.017 124.9 -999 21 -999
2012-04-10 06:47:34 51°13.638 2°56.017 124.9 -999 41 -999
2012-04-10 06:47:39 51°13.638 2°56.017 124.9 -999 147 -999
2012-04-10 06:47:44 51°13.638 2°56.017 124.9 -999 283 -999
2012-04-10 06:47:48 51°13.638 2°56.017 124.9 0.1 337 -999
2012-04-10 06:47:54 51°13.638 2°56.017 124.9 -999 314 -999
2012-04-10 06:47:59 51°13.638 2°56.017 124.9 -999 46 -999
2012-04-10 06:48:04 51°13.638 2°56.017 124.9 -999 19 -999
2012-04-10 06:48:08 51°13.638 2°56.017 124.7 -999 164 -999
2012-04-10 06:48:13 51°13.638 2°56.017 124.5 -999 347 -999
2012-04-10 06:48:18 51°13.638 2°56.017 124.4 0.1 2 -999
2012-04-10 06:48:23 51°13.638 2°56.017 124.4 -999 7 -999
2012-04-10 06:48:28 51°13.638 2°56.017 124.4 -999 125 -999
2012-04-10 06:48:32 51°13.638 2°56.017 124.4 -999 95 -999
2012-04-10 06:48:38 51°13.638 2°56.017 124.4 -999 1 -999
2012-04-10 06:48:43 51°13.638 2°56.017 124.5 -999 22 -999
2012-04-10 06:48:48 51°13.638 2°56.017 124.5 -999 153 -999
2012-04-10 06:48:53 51°13.638 2°56.017 124.6 -999 155 -999
2012-04-10 06:48:58 51°13.638 2°56.017 124.6 -999 267 -999
2012-04-10 06:49:03 51°13.638 2°56.017 124.6 -999 16 -999
2012-04-10 06:49:08 51°13.637 2°56.017 124.7 -999 80 -999
2012-04-10 06:49:13 51°13.637 2°56.017 124.7 -999 33 -999
2012-04-10 06:49:18 51°13.637 2°56.017 124.8 -999 21 -999
2012-04-10 06:49:23 51°13.637 2°56.017 124.8 -999 33 -999
2012-04-10 06:49:28 51°13.637 2°56.017 124.9 -999 27 -999
2012-04-10 06:49:33 51°13.637 2°56.017 124.9 -999 357 -999
2012-04-10 06:49:38 51°13.637 2°56.017 125.1 -999 159 -999
2012-04-10 06:49:43 51°13.637 2°56.017 125.2 -999 43 -999
2012-04-10 06:49:48 51°13.637 2°56.018 125.4 -999 43 -999
2012-04-10 06:49:53 51°13.637 2°56.018 125.5 -999 171 -999
2012-04-10 06:49:58 51°13.637 2°56.018 125.6 -999 24 -999
2012-04-10 06:50:03 51°13.638 2°56.018 125.7 0.1 4 -999
2012-04-10 06:50:08 51°13.637 2°56.017 125.7 -999 342 -999
2012-04-10 06:50:13 51°13.637 2°56.017 125.7 -999 230 -999
2012-04-10 06:50:18 51°13.637 2°56.017 125.7 -999 66 -999
2012-04-10 06:50:23 51°13.637 2°56.017 125.8 -999 345 -999
2012-04-10 06:50:28 51°13.637 2°56.017 125.8 -999 278 -999
2012-04-10 06:50:33 51°13.637 2°56.017 125.8 -999 33 -999
2012-04-10 06:50:38 51°13.637 2°56.017 125.8 -999 60 -999
2012-04-10 06:50:43 51°13.637 2°56.017 125.8 -999 45 -999
2012-04-10 06:50:48 51°13.637 2°56.017 125.8 -999 35 -999
2012-04-10 06:50:53 51°13.637 2°56.017 125.8 -999 14 -999
2012-04-10 06:50:58 51°13.637 2°56.017 125.8 -999 53 -999
2012-04-10 06:51:03 51°13.637 2°56.017 125.8 -999 59 -999
2012-04-10 06:51:08 51°13.637 2°56.017 125.8 -999 57 -999
2012-04-10 06:51:13 51°13.637 2°56.017 125.7 -999 320 -999
2012-04-10 06:51:18 51°13.637 2°56.017 125.7 -999 164 -999
2012-04-10 06:51:23 51°13.636 2°56.017 125.7 -999 201 -999
2012-04-10 06:51:28 51°13.636 2°56.017 125.6 -999 357 -999
2012-04-10 06:51:33 51°13.636 2°56.018 125.6 -999 76 -999
2012-04-10 06:51:38 51°13.636 2°56.018 125.6 -999 273 -999
2012-04-10 06:51:43 51°13.636 2°56.018 125.6 -999 208 -999
2012-04-10 06:51:48 51°13.636 2°56.017 125.6 -999 131 -999
2012-04-10 06:51:53 51°13.636 2°56.017 125.5 -999 88 -999
2012-04-10 06:51:59 51°13.636 2°56.017 125.4 -999 129 -999
2012-04-10 06:52:03 51°13.636 2°56.017 125.3 -999 16 -999
2012-04-10 06:52:08 51°13.636 2°56.017 125.3 -999 253 -999
2012-04-10 06:52:13 51°13.637 2°56.017 125.3 -999 57 -999
2012-04-10 06:52:18 51°13.637 2°56.017 125.3 -999 27 -999
2012-04-10 06:52:23 51°13.637 2°56.017 125.3 -999 109 -999
2012-04-10 06:52:28 51°13.637 2°56.017 125.3 -999 128 -999
2012-04-10 06:52:33 51°13.636 2°56.017 125.3 0.1 147 -999
2012-04-10 06:52:38 51°13.636 2°56.017 125.5 0.1 146 -999
2012-04-10 06:52:43 51°13.636 2°56.017 125.9 0.1 185 -999
2012-04-10 06:52:48 51°13.635 2°56.017 126.4 0.1 213 -999
2012-04-10 06:52:53 51°13.635 2°56.017 127.1 -999 78 -999
2012-04-10 06:52:58 51°13.635 2°56.017 127.4 -999 113 -999
2012-04-10 06:53:03 51°13.635 2°56.017 127.5 -999 61 -999
2012-04-10 06:53:08 51°13.636 2°56.017 127.5 -999 32 -999
2012-04-10 06:53:13 51°13.636 2°56.017 127.5 -999 45 -999
2012-04-10 06:53:18 51°13.636 2°56.017 127.3 -999 167 -999
2012-04-10 06:53:23 51°13.636 2°56.017 127.2 -999 225 -999
2012-04-10 06:53:28 51°13.636 2°56.017 127.2 -999 236 -999
2012-04-10 06:53:33 51°13.636 2°56.017 127.3 0.1 217 -999
2012-04-10 06:53:38 51°13.636 2°56.018 127.4 -999 214 -999
2012-04-10 06:53:43 51°13.636 2°56.018 127.5 -999 208 -999
2012-04-10 06:53:48 51°13.636 2°56.017 127.7 -999 153 -999
2012-04-10 06:53:53 51°13.636 2°56.017 127.8 -999 173 -999
2012-04-10 06:53:58 51°13.636 2°56.017 127.8 -999 158 -999
2012-04-10 06:54:03 51°13.636 2°56.017 127.8 -999 91 -999
2012-04-10 06:54:08 51°13.636 2°56.017 127.8 -999 86 -999
2012-04-10 06:54:13 51°13.636 2°56.018 127.8 -999 62 -999
2012-04-10 06:54:19 51°13.636 2°56.018 127.8 -999 181 -999
2012-04-10 06:54:23 51°13.636 2°56.018 127.8 -999 199 -999
2012-04-10 06:54:28 51°13.636 2°56.018 127.8 -999 196 -999
2012-04-10 06:54:33 51°13.636 2°56.018 127.8 -999 28 -999
2012-04-10 06:54:38 51°13.636 2°56.018 127.9 -999 158 -999
2012-04-10 06:54:44 51°13.636 2°56.018 127.9 -999 81 -999
2012-04-10 06:54:48 51°13.636 2°56.018 127.9 -999 205 -999
2012-04-10 06:54:53 51°13.636 2°56.018 127.9 -999 208 -999
2012-04-10 06:54:58 51°13.636 2°56.018 127.9 -999 152 -999
2012-04-10 06:55:03 51°13.636 2°56.018 127.9 0.1 143 -999
2012-04-10 06:55:08 51°13.636 2°56.018 127.9 -999 119 -999
2012-04-10 06:55:13 51°13.636 2°56.018 128 -999 31 -999
2012-04-10 06:55:18 51°13.636 2°56.019 128 -999 17 -999
2012-04-10 06:55:23 51°13.636 2°56.019 127.9 -999 146 -999
2012-04-10 06:55:28 51°13.636 2°56.019 127.8 -999 218 -999
2012-04-10 06:55:33 51°13.636 2°56.018 127.8 -999 214 -999
2012-04-10 06:55:38 51°13.636 2°56.018 127.8 -999 232 -999
2012-04-10 06:55:43 51°13.636 2°56.018 127.8 -999 212 -999
2012-04-10 06:55:48 51°13.635 2°56.018 127.9 -999 225 -999
2012-04-10 06:55:53 51°13.635 2°56.018 128 -999 233 -999
2012-04-10 06:55:58 51°13.636 2°56.018 128.1 -999 215 -999
2012-04-10 06:56:03 51°13.636 2°56.018 128.2 -999 42 -999
2012-04-10 06:56:08 51°13.636 2°56.018 128.3 0.1 45 -999
2012-04-10 06:56:13 51°13.636 2°56.019 128.3 0.1 82 -999
2012-04-10 06:56:18 51°13.636 2°56.019 128.1 0.1 84 -999
2012-04-10 06:56:23 51°13.636 2°56.019 127.4 0.1 70 -999
2012-04-10 06:56:28 51°13.636 2°56.019 126.4 0.1 71 -999
2012-04-10 06:56:33 51°13.636 2°56.019 125.7 -999 155 -999
2012-04-10 06:56:38 51°13.636 2°56.019 124.4 -999 43 -999
2012-04-10 06:56:43 51°13.636 2°56.019 123.4 -999 209 -999
2012-04-10 06:56:48 51°13.636 2°56.019 122.8 -999 196 -999
2012-04-10 06:56:53 51°13.636 2°56.019 122.4 -999 197 -999
2012-04-10 06:56:58 51°13.636 2°56.019 121.7 -999 197 -999
2012-04-10 06:57:04 51°13.636 2°56.019 120.9 -999 180 -999
2012-04-10 06:57:08 51°13.636 2°56.019 120.3 -999 176 -999
2012-04-10 06:57:13 51°13.636 2°56.019 119.8 0.1 176 -999
2012-04-10 06:57:18 51°13.636 2°56.019 119.1 -999 186 7.7
2012-04-10 06:57:23 51°13.636 2°56.019 118.5 -999 189 -999
2012-04-10 06:57:28 51°13.635 2°56.018 117.8 -999 196 7.7
2012-04-10 06:57:33 51°13.635 2°56.018 117.4 -999 222 7.7
2012-04-10 06:57:38 51°13.635 2°56.018 116.8 0.1 181 7.7
2012-04-10 06:57:43 51°13.634 2°56.018 116.2 -999 189 -999
2012-04-10 06:57:48 51°13.634 2°56.018 115.7 -999 165 7.6
2012-04-10 06:57:53 51°13.634 2°56.017 115.3 0.1 185 -999
2012-04-10 06:57:58 51°13.635 2°56.017 114.8 -999 186 7.7
2012-04-10 06:58:03 51°13.635 2°56.017 114.2 0.1 193 7.7
2012-04-10 06:58:08 51°13.635 2°56.018 113.6 0.1 195 7.7
2012-04-10 06:58:13 51°13.635 2°56.018 112.9 0.1 183 -999
2012-04-10 06:58:18 51°13.635 2°56.018 112.1 0.1 180 -999
2012-04-10 06:58:23 51°13.634 2°56.018 111.4 0.1 182 -999
2012-04-10 06:58:28 51°13.634 2°56.017 110.8 0.1 185 -999
2012-04-10 06:58:33 51°13.634 2°56.018 110.1 0.1 188 -999
2012-04-10 06:58:38 51°13.634 2°56.017 109.5 -999 228 7.7
2012-04-10 06:58:43 51°13.634 2°56.017 108.9 0.2 293 -999
2012-04-10 06:58:48 51°13.634 2°56.016 108.6 0.6 293 -999
2012-04-10 06:58:53 51°13.635 2°56.013 108.5 1.2 295 -999
2012-04-10 06:58:58 51°13.635 2°56.01 108.4 1.8 293 -999
2012-04-10 06:59:03 51°13.637 2°56.005 108.3 2.3 293 7.6
2012-04-10 06:59:08 51°13.638 2°56 108.3 2.5 291 7.7
2012-04-10 06:59:13 51°13.64 2°55.995 108.3 2.8 294 -999
2012-04-10 06:59:18 51°13.641 2°55.989 108.3 3 292 -999
2012-04-10 06:59:23 51°13.643 2°55.982 108.8 3.3 294 -999
2012-04-10 06:59:28 51°13.645 2°55.975 108.8 3.4 292 -999
2012-04-10 06:59:33 51°13.647 2°55.968 108.8 3.5 292 -999
2012-04-10 06:59:38 51°13.649 2°55.961 108.3 3.7 291 -999
2012-04-10 06:59:43 51°13.65 2°55.953 107.5 3.6 290 -999
2012-04-10 06:59:48 51°13.652 2°55.945 106.3 3.5 289 -999
2012-04-10 06:59:53 51°13.653 2°55.938 105.2 3.2 287 -999
2012-04-10 06:59:58 51°13.655 2°55.932 103.7 2.8 286 -999
2012-04-10 07:00:03 51°13.656 2°55.927 102 2.1 290 -999
2012-04-10 07:00:08 51°13.657 2°55.924 101.3 1.6 290 -999
2012-04-10 07:00:13 51°13.658 2°55.921 102.4 1.3 292 -999
2012-04-10 07:00:18 51°13.659 2°55.919 103.9 1.3 290 -999
2012-04-10 07:00:23 51°13.659 2°55.916 104.9 1.4 288 -999
2012-04-10 07:00:28 51°13.66 2°55.912 104.6 1.8 288 -999
2012-04-10 07:00:33 51°13.66 2°55.907 103.8 2.3 283 9.1
2012-04-10 07:00:38 51°13.661 2°55.902 103.5 2.5 286 -999
2012-04-10 07:00:43 51°13.662 2°55.896 103.4 2.7 284 -999
2012-04-10 07:00:48 51°13.664 2°55.89 103.7 2.8 284 -999
2012-04-10 07:00:53 51°13.665 2°55.883 104.1 3 284 -999
2012-04-10 07:00:58 51°13.666 2°55.877 104.8 3.1 285 -999
2012-04-10 07:01:03 51°13.667 2°55.87 105.6 3.2 285 -999
2012-04-10 07:01:08 51°13.668 2°55.863 106.8 3.3 286 -999
2012-04-10 07:01:13 51°13.67 2°55.856 108.3 3.4 287 -999
2012-04-10 07:01:19 51°13.672 2°55.847 110.1 3.6 290 -999
2012-04-10 07:01:23 51°13.673 2°55.841 112.3 3.7 291 -999
2012-04-10 07:01:28 51°13.675 2°55.833 114 3.7 293 -999
2012-04-10 07:01:33 51°13.677 2°55.825 116.4 3.8 295 -999
2012-04-10 07:01:38 51°13.679 2°55.817 119 3.9 298 -999
2012-04-10 07:01:43 51°13.682 2°55.81 121.8 4 301 -999
2012-04-10 07:01:48 51°13.685 2°55.802 124.5 4.1 303 -999
2012-04-10 07:01:53 51°13.689 2°55.794 127.1 4.2 305 -999
2012-04-10 07:01:58 51°13.692 2°55.787 129.3 4.4 308 -999
2012-04-10 07:02:03 51°13.696 2°55.779 131.5 4.5 310 -999
2012-04-10 07:02:08 51°13.701 2°55.772 133.6 4.5 312 -999
2012-04-10 07:02:13 51°13.705 2°55.765 135 4.6 313 -999
2012-04-10 07:02:18 51°13.71 2°55.757 136.2 4.8 315 -999
2012-04-10 07:02:23 51°13.715 2°55.75 137.3 4.8 315 -999
2012-04-10 07:02:28 51°13.719 2°55.742 138.3 4.9 317 -999
2012-04-10 07:02:33 51°13.724 2°55.735 139.4 4.9 317 -999
2012-04-10 07:02:38 51°13.729 2°55.728 140.5 4.9 320 -999
2012-04-10 07:02:43 51°13.735 2°55.721 141.9 4.9 321 -999
2012-04-10 07:02:48 51°13.74 2°55.714 144.1 4.9 323 -999
2012-04-10 07:02:53 51°13.746 2°55.708 146.1 5 326 -999
2012-04-10 07:02:58 51°13.752 2°55.702 147.8 5 327 -999
2012-04-10 07:03:03 51°13.758 2°55.696 149.3 5 328 -999
2012-04-10 07:03:08 51°13.764 2°55.69 150.5 5.1 329 -999
2012-04-10 07:03:13 51°13.77 2°55.685 151.6 5.1 330 -999
2012-04-10 07:03:18 51°13.776 2°55.679 152.7 5.1 332 -999
2012-04-10 07:03:23 51°13.782 2°55.674 153.6 5.2 333 -999
2012-04-10 07:03:28 51°13.789 2°55.669 154.6 5.2 333 -999
2012-04-10 07:03:33 51°13.796 2°55.665 155.5 5.3 335 -999
2012-04-10 07:03:39 51°13.803 2°55.659 156.5 5.3 336 -999
2012-04-10 07:03:43 51°13.809 2°55.655 157.6 5.4 337 -999
2012-04-10 07:03:48 51°13.816 2°55.651 158.5 5.4 337 -999
2012-04-10 07:03:53 51°13.823 2°55.646 159.4 5.4 338 -999
2012-04-10 07:03:58 51°13.83 2°55.642 160.1 5.4 339 -999
2012-04-10 07:04:03 51°13.837 2°55.638 160.6 5.3 339 -999
2012-04-10 07:04:08 51°13.843 2°55.634 161.2 5.1 340 -999
2012-04-10 07:04:13 51°13.85 2°55.63 161.8 5 340 -999
2012-04-10 07:04:18 51°13.857 2°55.626 162.5 4.9 342 -999
2012-04-10 07:04:23 51°13.863 2°55.623 163.7 4.9 342 -999
2012-04-10 07:04:28 51°13.869 2°55.62 165 4.9 344 -999
2012-04-10 07:04:33 51°13.876 2°55.617 166.6 4.9 345 -999
2012-04-10 07:04:38 51°13.883 2°55.615 167.9 5 347 -999
2012-04-10 07:04:43 51°13.889 2°55.612 169.8 4.8 347 -999
2012-04-10 07:04:48 51°13.896 2°55.61 171.6 4.7 349 -999
2012-04-10 07:04:53 51°13.902 2°55.609 173.1 4.5 350 -999
2012-04-10 07:04:58 51°13.908 2°55.607 174.5 4.4 352 -999
2012-04-10 07:05:03 51°13.914 2°55.606 176.3 4.3 353 -999
2012-04-10 07:05:08 51°13.919 2°55.605 178.3 4.2 355 -999
2012-04-10 07:05:13 51°13.925 2°55.605 180.7 4.1 357 -999
2012-04-10 07:05:18 51°13.931 2°55.604 183.2 4 -999 -999
2012-04-10 07:05:23 51°13.936 2°55.605 186 3.9 1 -999
2012-04-10 07:05:28 51°13.941 2°55.605 188.7 3.8 3 -999
2012-04-10 07:05:33 51°13.946 2°55.606 191.3 3.7 6 -999
2012-04-10 07:05:38 51°13.951 2°55.607 193.9 3.5 8 -999
2012-04-10 07:05:43 51°13.956 2°55.609 196.3 3.4 10 -999
2012-04-10 07:05:48 51°13.96 2°55.61 198.7 3.3 11 -999
2012-04-10 07:05:53 51°13.965 2°55.611 201.1 3.2 14 -999
2012-04-10 07:05:58 51°13.969 2°55.612 203.2 3 14 -999
2012-04-10 07:06:03 51°13.973 2°55.614 204.9 2.4 16 -999
2012-04-10 07:06:08 51°13.975 2°55.614 207.2 1.8 12 -999
2012-04-10 07:06:13 51°13.976 2°55.614 210.4 0.8 -999 -999
2012-04-10 07:06:18 51°13.976 2°55.613 215.8 0.7 282 -999
2012-04-10 07:06:24 51°13.976 2°55.61 223.3 1.3 255 -999
2012-04-10 07:06:28 51°13.975 2°55.607 232 1.7 257 -999
2012-04-10 07:06:33 51°13.975 2°55.603 241.1 1.9 261 -999
2012-04-10 07:06:38 51°13.975 2°55.599 249.8 2 269 -999
2012-04-10 07:06:43 51°13.975 2°55.594 256.3 2.1 274 -999
2012-04-10 07:06:48 51°13.976 2°55.589 261.8 2.5 278 -999
2012-04-10 07:06:53 51°13.976 2°55.582 267.2 3.2 278 10.2
2012-04-10 07:06:58 51°13.977 2°55.575 273.6 3.4 290 -999
2012-04-10 07:07:03 51°13.979 2°55.568 282.4 3.5 293 10.1
2012-04-10 07:07:08 51°13.982 2°55.56 288 3.6 299 10
2012-04-10 07:07:13 51°13.985 2°55.554 293.1 3.8 305 -999
2012-04-10 07:07:18 51°13.988 2°55.547 300.8 3.9 312 -999
2012-04-10 07:07:23 51°13.992 2°55.541 307.7 4 317 10.1
2012-04-10 07:07:28 51°13.997 2°55.536 314.8 4.1 322 -999
2012-04-10 07:07:33 51°14.002 2°55.53 320.9 4.2 325 10.2
2012-04-10 07:07:38 51°14.007 2°55.525 325.6 4.4 328 -999
2012-04-10 07:07:43 51°14.013 2°55.52 329 4.7 329 -999
2012-04-10 07:07:48 51°14.019 2°55.514 331 5 331 -999
2012-04-10 07:07:53 51°14.025 2°55.508 331.4 5.4 330 -999
2012-04-10 07:07:58 51°14.032 2°55.502 331.9 5.8 332 -999
2012-04-10 07:08:03 51°14.039 2°55.496 332.5 6.1 331 10.4
2012-04-10 07:08:08 51°14.047 2°55.49 332.8 6.3 332 10.1
2012-04-10 07:08:13 51°14.055 2°55.483 333.2 6.5 332 10.1
2012-04-10 07:08:18 51°14.063 2°55.476 333.6 6.7 333 -999
2012-04-10 07:08:23 51°14.072 2°55.469 334 6.9 332 10.1
2012-04-10 07:08:28 51°14.08 2°55.461 334 7.1 333 -999
2012-04-10 07:08:33 51°14.089 2°55.454 334 7.2 333 10.1
2012-04-10 07:08:38 51°14.098 2°55.447 334.4 7.4 333 10.1
2012-04-10 07:08:43 51°14.108 2°55.439 334.4 7.5 332 -999
2012-04-10 07:08:48 51°14.117 2°55.431 334.1 7.6 331 -999
2012-04-10 07:08:53 51°14.126 2°55.423 333.9 7.7 332 -999
2012-04-10 07:08:58 51°14.136 2°55.414 333.6 7.9 330 -999
2012-04-10 07:09:03 51°14.145 2°55.406 333.1 8 330 10.1
2012-04-10 07:09:08 51°14.155 2°55.397 332.8 8 330 -999
2012-04-10 07:09:13 51°14.165 2°55.388 332.6 8.1 330 -999
2012-04-10 07:09:18 51°14.174 2°55.378 331.9 8.2 330 -999
2012-04-10 07:09:23 51°14.184 2°55.369 331.8 8.2 331 9.9
2012-04-10 07:09:28 51°14.194 2°55.361 332.3 8.2 331 9.9
2012-04-10 07:09:33 51°14.204 2°55.352 332.7 8.2 331 -999
2012-04-10 07:09:38 51°14.214 2°55.343 333 8.3 330 10
2012-04-10 07:09:43 51°14.224 2°55.334 332.8 8.3 331 -999
2012-04-10 07:09:48 51°14.234 2°55.325 333.2 8.3 331 9.9
2012-04-10 07:09:53 51°14.244 2°55.316 333.3 8.3 331 -999
2012-04-10 07:09:59 51°14.256 2°55.305 333 8.3 330 -999
2012-04-10 07:10:03 51°14.265 2°55.298 332.7 8.3 331 -999
2012-04-10 07:10:08 51°14.275 2°55.29 333.2 8.4 332 -999
2012-04-10 07:10:13 51°14.285 2°55.281 333.8 8.5 332 -999
2012-04-10 07:10:18 51°14.296 2°55.272 334 8.6 332 -999
2012-04-10 07:10:23 51°14.307 2°55.263 333.6 8.7 331 -999
2012-04-10 07:10:28 51°14.318 2°55.254 333.5 8.8 331 -999
2012-04-10 07:10:33 51°14.329 2°55.245 333.2 8.8 331 -999
2012-04-10 07:10:38 51°14.339 2°55.234 332.3 8.9 329 -999
2012-04-10 07:10:43 51°14.35 2°55.224 331.3 9 330 -999
2012-04-10 07:10:48 51°14.36 2°55.214 330.8 9 329 -999
2012-04-10 07:10:53 51°14.371 2°55.203 330.6 9.1 330 -999
2012-04-10 07:10:58 51°14.382 2°55.193 331.5 9.2 330 -999
2012-04-10 07:11:03 51°14.393 2°55.183 331.9 9.3 330 -999
2012-04-10 07:11:08 51°14.405 2°55.173 331.6 9.4 329 9.7
2012-04-10 07:11:13 51°14.416 2°55.162 331.2 9.6 329 -999
2012-04-10 07:11:18 51°14.427 2°55.15 330.6 9.7 328 -999
2012-04-10 07:11:23 51°14.439 2°55.139 330.1 9.8 329 -999
2012-04-10 07:11:28 51°14.451 2°55.128 330.3 9.8 329 -999
2012-04-10 07:11:33 51°14.463 2°55.117 330.9 9.9 329 -999
2012-04-10 07:11:38 51°14.475 2°55.106 331.6 10 330 9.8
2012-04-10 07:11:43 51°14.487 2°55.094 331.7 10.1 330 10.3
2012-04-10 07:11:48 51°14.499 2°55.083 331.7 10.1 330 10.4
2012-04-10 07:11:52 51°14.508 2°55.074 331.3 10.1 329 10.2
2012-04-10 07:11:58 51°14.523 2°55.059 330.4 10.2 328 10.1
2012-04-10 07:12:02 51°14.532 2°55.049 329.6 10.3 327 10.4
2012-04-10 07:12:07 51°14.544 2°55.037 328.9 10.4 326 10.7
2012-04-10 07:12:12 51°14.556 2°55.023 328.9 10.5 325 11
2012-04-10 07:12:17 51°14.568 2°55.01 328.2 10.6 324 11.4
2012-04-10 07:12:21 51°14.577 2°54.998 327.6 10.7 322 11.6
2012-04-10 07:12:26 51°14.589 2°54.982 326.6 10.8 319 11.7
2012-04-10 07:12:31 51°14.6 2°54.966 324.7 10.9 316 11.4
2012-04-10 07:12:36 51°14.61 2°54.948 322.2 11 312 11.2
2012-04-10 07:12:40 51°14.618 2°54.933 319.5 11.1 311 11.3
2012-04-10 07:12:45 51°14.628 2°54.913 318.4 11.2 310 11.1
2012-04-10 07:12:50 51°14.637 2°54.893 315.6 11.3 305 10.9
2012-04-10 07:12:55 51°14.645 2°54.871 311.2 11.5 301 11.5
2012-04-10 07:13:00 51°14.653 2°54.849 307.3 11.6 299 11.3
2012-04-10 07:13:05 51°14.659 2°54.825 303.5 11.7 295 11.2
2012-04-10 07:13:10 51°14.665 2°54.801 299.8 11.8 291 11.1
2012-04-10 07:13:15 51°14.67 2°54.775 295.8 11.9 286 10.9
2012-04-10 07:13:20 51°14.673 2°54.749 290.9 12 282 11
2012-04-10 07:13:25 51°14.675 2°54.723 286.1 12 277 10.6
2012-04-10 07:13:30 51°14.676 2°54.696 280.7 12.1 273 10.8
2012-04-10 07:13:35 51°14.676 2°54.67 276 12 267 10.5
2012-04-10 07:13:40 51°14.673 2°54.644 270.2 12 262 10.6
2012-04-10 07:13:44 51°14.67 2°54.623 264.4 12 256 10.5
2012-04-10 07:13:50 51°14.664 2°54.593 258.1 11.9 251 9.9
2012-04-10 07:13:55 51°14.657 2°54.569 251.9 11.9 246 10
2012-04-10 07:14:00 51°14.649 2°54.546 246.3 12.1 242 10.1
2012-04-10 07:14:05 51°14.641 2°54.523 241.8 12.2 240 10
2012-04-10 07:14:10 51°14.631 2°54.5 239.5 12.3 237 10.3
2012-04-10 07:14:15 51°14.621 2°54.478 236.4 12.3 232 10.2
2012-04-10 07:14:20 51°14.61 2°54.457 232.3 12.5 231 9.8
2012-04-10 07:14:24 51°14.601 2°54.44 230.2 12.6 231 10.3
2012-04-10 07:14:30 51°14.588 2°54.414 230 12.6 231 10
2012-04-10 07:14:35 51°14.577 2°54.392 229.3 12.8 231 10.1
2012-04-10 07:14:40 51°14.566 2°54.369 230.3 12.9 233 9.9
2012-04-10 07:14:45 51°14.556 2°54.345 232 12.9 235 9.8
2012-04-10 07:14:50 51°14.546 2°54.322 233.8 12.9 236 9.6
2012-04-10 07:14:55 51°14.537 2°54.297 236 12.9 239 9.5
2012-04-10 07:15:00 51°14.528 2°54.273 238.9 12.9 239 9.6
2012-04-10 07:15:05 51°14.519 2°54.248 239.7 12.9 240 9.5
2012-04-10 07:15:10 51°14.51 2°54.223 241 12.9 241 9.7
2012-04-10 07:15:15 51°14.502 2°54.198 241.9 12.8 241 9.5
2012-04-10 07:15:20 51°14.493 2°54.173 242.1 12.9 242 9.7
2012-04-10 07:15:25 51°14.485 2°54.148 242.6 12.9 242 9.3
2012-04-10 07:15:30 51°14.476 2°54.123 242.1 13 240 9.4
2012-04-10 07:15:35 51°14.467 2°54.098 240.2 12.9 239 9.7
2012-04-10 07:15:40 51°14.458 2°54.074 239.7 12.9 240 9.4
2012-04-10 07:15:45 51°14.448 2°54.05 239.2 13 236 9.4
2012-04-10 07:15:50 51°14.438 2°54.026 237.3 13 237 9.7
2012-04-10 07:15:55 51°14.428 2°54.003 237.2 12.8 236 9.4
2012-04-10 07:16:00 51°14.418 2°53.979 236.4 12.9 235 9.2
2012-04-10 07:16:05 51°14.407 2°53.956 235.5 12.9 235 9.5
2012-04-10 07:16:10 51°14.397 2°53.933 235.1 12.9 234 9.1
2012-04-10 07:16:15 51°14.386 2°53.909 234.4 12.9 234 9.4
2012-04-10 07:16:20 51°14.376 2°53.887 234.3 12.8 234 9.1
2012-04-10 07:16:24 51°14.367 2°53.869 233 12.9 231 9.3
2012-04-10 07:16:30 51°14.353 2°53.842 231.6 12.9 231 9.3
2012-04-10 07:16:35 51°14.343 2°53.82 231.1 12.8 231 9.2
2012-04-10 07:16:40 51°14.331 2°53.798 230.2 12.9 230 9.3
2012-04-10 07:16:45 51°14.32 2°53.776 230.4 13 231 9.5
2012-04-10 07:16:50 51°14.309 2°53.754 230.9 13 231 9.4
2012-04-10 07:16:55 51°14.298 2°53.731 231.1 12.8 231 9.2
2012-04-10 07:17:00 51°14.287 2°53.709 231.5 12.9 231 9.1
2012-04-10 07:17:05 51°14.276 2°53.686 231.9 12.9 233 9.3
2012-04-10 07:17:10 51°14.265 2°53.664 232.9 12.9 233 9.3
2012-04-10 07:17:15 51°14.254 2°53.64 233.7 12.9 234 9.5
2012-04-10 07:17:20 51°14.244 2°53.617 234.8 12.8 236 9.2
2012-04-10 07:17:25 51°14.234 2°53.594 235.6 12.9 235 9.3
2012-04-10 07:17:30 51°14.224 2°53.57 236.1 12.9 236 9.3
2012-04-10 07:17:35 51°14.214 2°53.547 237.1 12.8 236 9.1
2012-04-10 07:17:40 51°14.205 2°53.523 236.7 12.8 236 9.4
2012-04-10 07:17:45 51°14.195 2°53.5 236.3 12.8 235 9.4
2012-04-10 07:17:50 51°14.185 2°53.476 236.1 12.8 237 8.9
2012-04-10 07:17:55 51°14.175 2°53.453 236.7 12.7 237 9
2012-04-10 07:18:00 51°14.165 2°53.429 236.9 12.8 236 9.2
2012-04-10 07:18:05 51°14.155 2°53.406 236.5 12.8 235 9.6
2012-04-10 07:18:10 51°14.145 2°53.383 236.5 12.8 235 9.5
2012-04-10 07:18:15 51°14.135 2°53.36 236 12.8 235 9.2
2012-04-10 07:18:20 51°14.124 2°53.337 235.6 12.7 234 9.6
2012-04-10 07:18:24 51°14.116 2°53.319 235.5 12.7 235 9.3
2012-04-10 07:18:30 51°14.104 2°53.292 235.2 12.7 234 9.2
2012-04-10 07:18:35 51°14.093 2°53.269 234.2 12.6 232 9.5
2012-04-10 07:18:40 51°14.082 2°53.248 232.8 12.6 231 9.2
2012-04-10 07:18:44 51°14.073 2°53.231 230.5 12.7 231 9.3
2012-04-10 07:18:50 51°14.06 2°53.204 230.9 12.7 231 9.7
2012-04-10 07:18:55 51°14.049 2°53.182 231.9 12.6 231 9.2
2012-04-10 07:19:00 51°14.038 2°53.16 231.7 12.7 232 9.3
2012-04-10 07:19:05 51°14.027 2°53.138 232.2 12.7 233 9.4
2012-04-10 07:19:10 51°14.016 2°53.116 232.6 12.7 232 9.5
2012-04-10 07:19:15 51°14.006 2°53.094 233.1 12.6 233 9.6
2012-04-10 07:19:20 51°13.995 2°53.071 233.7 12.6 234 9.2
2012-04-10 07:19:24 51°13.987 2°53.053 234.2 12.7 234 9.6
2012-04-10 07:19:30 51°13.975 2°53.025 235 12.7 235 9.3
2012-04-10 07:19:35 51°13.965 2°53.003 236 12.7 235 9.7
2012-04-10 07:19:40 51°13.955 2°52.979 236.5 12.6 236 9.6
2012-04-10 07:19:45 51°13.946 2°52.956 236.8 12.6 236 9.2
2012-04-10 07:19:50 51°13.936 2°52.933 236.5 12.6 237 9.3
2012-04-10 07:19:55 51°13.926 2°52.91 236.8 12.7 236 9.5
2012-04-10 07:20:00 51°13.917 2°52.886 237.3 12.6 238 9.4
2012-04-10 07:20:05 51°13.907 2°52.863 237.7 12.6 236 9.5
2012-04-10 07:20:10 51°13.898 2°52.839 237.2 12.6 237 9.6
2012-04-10 07:20:15 51°13.888 2°52.816 237.4 12.6 236 9.3
2012-04-10 07:20:20 51°13.878 2°52.793 236.7 12.7 237 9.5
2012-04-10 07:20:24 51°13.87 2°52.775 236.7 12.6 235 9.4
2012-04-10 07:20:30 51°13.858 2°52.747 236 12.6 235 9.6
2012-04-10 07:20:35 51°13.848 2°52.725 235.7 12.7 234 9.6
2012-04-10 07:20:40 51°13.838 2°52.701 235.5 12.7 236 9.6
2012-04-10 07:20:44 51°13.829 2°52.684 235.4 12.6 234 9.4
2012-04-10 07:20:50 51°13.816 2°52.657 234.8 12.6 234 9.4
2012-04-10 07:20:55 51°13.806 2°52.634 234.1 12.6 233 9.6
2012-04-10 07:21:00 51°13.795 2°52.612 233.5 12.6 232 9.5
2012-04-10 07:21:04 51°13.787 2°52.595 232.5 12.6 232 9.5
2012-04-10 07:21:10 51°13.774 2°52.569 231.7 12.7 231 9.6
2012-04-10 07:21:15 51°13.763 2°52.547 231.3 12.6 232 9.6
2012-04-10 07:21:20 51°13.751 2°52.525 230.9 12.6 230 9.5
2012-04-10 07:21:25 51°13.74 2°52.504 230.3 12.6 231 9.7
2012-04-10 07:21:30 51°13.729 2°52.482 230.8 12.6 230 9.7
2012-04-10 07:21:35 51°13.719 2°52.46 231.5 12.6 232 9.6
2012-04-10 07:21:40 51°13.708 2°52.438 231.5 12.6 232 9.4
2012-04-10 07:21:44 51°13.699 2°52.421 231.7 12.6 232 9.6
2012-04-10 07:21:50 51°13.686 2°52.395 231.8 12.6 231 9.6
2012-04-10 07:21:55 51°13.675 2°52.372 231.6 12.7 232 9.7
2012-04-10 07:22:00 51°13.665 2°52.35 232.2 12.7 233 9.6
2012-04-10 07:22:05 51°13.654 2°52.328 232.6 12.7 232 9.8
2012-04-10 07:22:10 51°13.644 2°52.305 233 12.7 233 9.8
2012-04-10 07:22:15 51°13.633 2°52.283 233.4 12.6 233 9.6
2012-04-10 07:22:20 51°13.623 2°52.261 233.7 12.7 233 9.8
2012-04-10 07:22:25 51°13.612 2°52.238 233.7 12.7 234 9.7
2012-04-10 07:22:30 51°13.602 2°52.215 233.9 12.7 234 9.9
2012-04-10 07:22:35 51°13.592 2°52.192 234.3 12.7 234 9.9
2012-04-10 07:22:40 51°13.582 2°52.169 234.8 12.7 235 9.7
2012-04-10 07:22:44 51°13.574 2°52.151 235.7 12.7 236 9.7
2012-04-10 07:22:50 51°13.562 2°52.123 236.3 12.7 236 9.7
2012-04-10 07:22:55 51°13.552 2°52.1 236.7 12.7 236 9.7
2012-04-10 07:23:00 51°13.542 2°52.076 236.8 12.7 236 9.7
2012-04-10 07:23:04 51°13.535 2°52.058 236.7 12.7 237 9.8
2012-04-10 07:23:10 51°13.523 2°52.029 236.7 12.7 236 9.8
2012-04-10 07:23:15 51°13.513 2°52.006 236.7 12.7 236 9.8
2012-04-10 07:23:20 51°13.503 2°51.983 236.4 12.7 235 10
2012-04-10 07:23:25 51°13.493 2°51.96 236.1 12.6 235 9.8
2012-04-10 07:23:30 51°13.483 2°51.938 235.7 12.6 234 9.7
2012-04-10 07:23:35 51°13.473 2°51.915 234.8 12.6 234 9.6
2012-04-10 07:23:40 51°13.462 2°51.893 234 12.6 232 9.7
2012-04-10 07:23:44 51°13.453 2°51.876 232.8 12.7 232 9.8
2012-04-10 07:23:50 51°13.44 2°51.849 232 12.6 232 9.6
2012-04-10 07:23:55 51°13.429 2°51.828 232.3 12.6 231 9.6
2012-04-10 07:24:00 51°13.418 2°51.806 231.5 12.7 231 9.8
2012-04-10 07:24:05 51°13.407 2°51.784 231.2 12.7 230 9.8
2012-04-10 07:24:10 51°13.396 2°51.763 231.4 12.5 231 9.5
2012-04-10 07:24:15 51°13.385 2°51.741 231.6 12.5 231 9.6
2012-04-10 07:24:20 51°13.374 2°51.719 232 12.6 232 10.2
2012-04-10 07:24:25 51°13.364 2°51.698 232.7 12.5 232 9.6
2012-04-10 07:24:30 51°13.353 2°51.675 232.9 12.5 233 9.4
2012-04-10 07:24:35 51°13.343 2°51.653 233.6 12.6 234 9.8
2012-04-10 07:24:40 51°13.333 2°51.63 234.2 12.6 234 9.7
2012-04-10 07:24:45 51°13.323 2°51.608 234.9 12.5 235 9.5
2012-04-10 07:24:50 51°13.313 2°51.585 235.4 12.6 235 9.9
2012-04-10 07:24:55 51°13.303 2°51.562 235.5 12.6 235 9.5
2012-04-10 07:25:00 51°13.293 2°51.539 235.9 12.6 236 9.5
2012-04-10 07:25:04 51°13.285 2°51.521 236.3 12.6 236 9.5
2012-04-10 07:25:10 51°13.273 2°51.493 236.5 12.5 236 9.4
2012-04-10 07:25:15 51°13.263 2°51.47 236.4 12.6 235 9.8
2012-04-10 07:25:20 51°13.254 2°51.447 236.7 12.5 236 9.4
2012-04-10 07:25:25 51°13.243 2°51.425 236.3 12.5 234 9.8
2012-04-10 07:25:30 51°13.233 2°51.402 235.3 12.6 234 9.8
2012-04-10 07:25:35 51°13.222 2°51.38 234.5 12.5 233 9.8
2012-04-10 07:25:40 51°13.211 2°51.359 233.4 12.6 231 9.6
2012-04-10 07:25:44 51°13.203 2°51.341 231.5 12.6 231 9.6
2012-04-10 07:25:50 51°13.19 2°51.315 231.7 12.6 231 9.6
2012-04-10 07:25:55 51°13.179 2°51.293 231.9 12.6 233 9.7
2012-04-10 07:26:00 51°13.169 2°51.27 233.1 12.6 233 9.5
2012-04-10 07:26:05 51°13.158 2°51.248 234 12.6 234 9.4
2012-04-10 07:26:10 51°13.148 2°51.225 233.8 12.6 235 9.4
2012-04-10 07:26:15 51°13.138 2°51.202 234.8 12.6 235 9.5
2012-04-10 07:26:20 51°13.128 2°51.179 236 12.7 236 9.6
2012-04-10 07:26:25 51°13.118 2°51.156 236.8 12.7 236 9.8
2012-04-10 07:26:30 51°13.109 2°51.133 237.5 12.6 237 9.7
2012-04-10 07:26:35 51°13.1 2°51.109 238.7 12.7 238 9.7
2012-04-10 07:26:40 51°13.09 2°51.086 238.3 12.7 237 9.7
2012-04-10 07:26:45 51°13.081 2°51.062 238.7 12.7 238 9.9
2012-04-10 07:26:50 51°13.071 2°51.038 238.9 12.6 237 9.7
2012-04-10 07:26:55 51°13.061 2°51.015 237.7 12.6 236 9.6
2012-04-10 07:27:00 51°13.051 2°50.992 236.7 12.7 236 9.6
2012-04-10 07:27:04 51°13.043 2°50.974 236.3 12.7 236 9.7
2012-04-10 07:27:10 51°13.032 2°50.946 236.6 12.7 236 9.6
2012-04-10 07:27:15 51°13.022 2°50.923 236.8 12.7 236 9.7
2012-04-10 07:27:20 51°13.012 2°50.899 237 12.7 237 9.8
2012-04-10 07:27:24 51°13.004 2°50.881 237.1 12.7 235 9.6
2012-04-10 07:27:30 51°12.992 2°50.853 236.7 12.7 236 9.7
2012-04-10 07:27:35 51°12.982 2°50.83 236.9 12.7 236 9.7
2012-04-10 07:27:40 51°12.972 2°50.807 236.9 12.7 236 9.7
2012-04-10 07:27:45 51°12.963 2°50.784 236.9 12.7 236 9.6
2012-04-10 07:27:50 51°12.952 2°50.761 236.4 12.6 234 9.6
2012-04-10 07:27:55 51°12.942 2°50.738 235 12.6 234 9.9
2012-04-10 07:28:00 51°12.932 2°50.716 234.5 12.6 234 9.4
2012-04-10 07:28:04 51°12.924 2°50.697 234.7 12.7 235 9.7
2012-04-10 07:28:10 51°12.912 2°50.67 235.1 12.7 237 9.6
2012-04-10 07:28:15 51°12.903 2°50.646 237.3 12.6 237 9.6
2012-04-10 07:28:20 51°12.894 2°50.622 238.8 12.7 240 9.6
2012-04-10 07:28:25 51°12.885 2°50.598 240.3 12.6 240 9.7
2012-04-10 07:28:30 51°12.877 2°50.573 241.8 12.6 242 9.6
2012-04-10 07:28:35 51°12.869 2°50.549 242.8 12.6 243 9.5
2012-04-10 07:28:40 51°12.861 2°50.523 243.3 12.7 242 9.6
2012-04-10 07:28:45 51°12.853 2°50.499 243.8 12.7 243 9.7
2012-04-10 07:28:50 51°12.845 2°50.474 244.9 12.6 243 9.8
2012-04-10 07:28:55 51°12.837 2°50.448 245.4 12.6 244 9.5
2012-04-10 07:29:00 51°12.83 2°50.423 244.8 12.6 244 9.4
2012-04-10 07:29:05 51°12.822 2°50.398 245.4 12.7 244 9.5
2012-04-10 07:29:10 51°12.814 2°50.373 245.5 12.7 244 9.6
2012-04-10 07:29:15 51°12.807 2°50.348 245.4 12.7 244 9.6
2012-04-10 07:29:20 51°12.799 2°50.323 245.5 12.7 243 9.6
2012-04-10 07:29:25 51°12.791 2°50.298 244.9 12.7 244 9.6
2012-04-10 07:29:30 51°12.783 2°50.273 244.9 12.7 243 9.7
2012-04-10 07:29:35 51°12.775 2°50.248 244.6 12.6 241 9.4
2012-04-10 07:29:40 51°12.766 2°50.224 243 12.5 240 9.2
2012-04-10 07:29:44 51°12.759 2°50.205 240.7 12.6 239 9.5
2012-04-10 07:29:50 51°12.748 2°50.177 239.6 12.6 239 9.5
2012-04-10 07:29:55 51°12.738 2°50.154 239.1 12.6 237 9.7
2012-04-10 07:30:00 51°12.729 2°50.13 238.4 12.6 238 9.5
2012-04-10 07:30:05 51°12.72 2°50.106 238.7 12.6 237 9.4
2012-04-10 07:30:10 51°12.71 2°50.083 238.3 12.7 237 9.8
2012-04-10 07:30:15 51°12.701 2°50.059 238.5 12.6 238 9.7
2012-04-10 07:30:20 51°12.692 2°50.035 238.8 12.6 239 9.5
2012-04-10 07:30:24 51°12.684 2°50.016 239.2 12.7 240 9.3
2012-04-10 07:30:30 51°12.674 2°49.987 239.9 12.7 240 9.5
2012-04-10 07:30:35 51°12.665 2°49.962 241 12.6 241 9.3
2012-04-10 07:30:40 51°12.657 2°49.938 241.8 12.5 242 9.3
2012-04-10 07:30:45 51°12.649 2°49.914 242.6 12.5 241 9.8
2012-04-10 07:30:50 51°12.641 2°49.889 243 12.6 242 9.5
2012-04-10 07:30:55 51°12.633 2°49.864 243.2 12.6 242 9.6
2012-04-10 07:31:00 51°12.625 2°49.839 243.5 12.6 243 9.4
2012-04-10 07:31:05 51°12.617 2°49.814 243.2 12.6 242 9.4
2012-04-10 07:31:10 51°12.609 2°49.789 243.3 12.6 243 9.4
2012-04-10 07:31:15 51°12.6 2°49.765 243.8 12.7 242 9.5
2012-04-10 07:31:20 51°12.592 2°49.74 243.9 12.6 243 9.5
2012-04-10 07:31:25 51°12.584 2°49.715 244.4 12.6 242 9.7
2012-04-10 07:31:30 51°12.576 2°49.691 243.6 12.6 242 9.5
2012-04-10 07:31:35 51°12.568 2°49.666 243.2 12.7 242 9.4
2012-04-10 07:31:40 51°12.56 2°49.641 243 12.6 242 9.3
2012-04-10 07:31:45 51°12.552 2°49.617 243.1 12.7 243 9.6
2012-04-10 07:31:50 51°12.543 2°49.592 243 12.6 242 9.6
2012-04-10 07:31:55 51°12.535 2°49.567 243.2 12.7 242 9.7
2012-04-10 07:32:00 51°12.527 2°49.543 243.5 12.6 242 9.4
2012-04-10 07:32:04 51°12.52 2°49.523 243.1 12.6 242 9.8
2012-04-10 07:32:10 51°12.51 2°49.494 243.2 12.6 242 9.5
2012-04-10 07:32:15 51°12.502 2°49.469 242.8 12.6 241 9.6
2012-04-10 07:32:20 51°12.493 2°49.445 242.4 12.6 241 9.3
2012-04-10 07:32:25 51°12.484 2°49.421 241.8 12.6 240 9.4
2012-04-10 07:32:30 51°12.475 2°49.397 241 12.6 239 9.5
2012-04-10 07:32:35 51°12.466 2°49.373 240.3 12.6 239 9.6
2012-04-10 07:32:40 51°12.457 2°49.349 240.1 12.7 238 9.5
2012-04-10 07:32:45 51°12.447 2°49.326 238.7 12.7 237 9.7
2012-04-10 07:32:50 51°12.438 2°49.302 238 12.7 237 9.5
2012-04-10 07:32:55 51°12.428 2°49.278 237.9 12.7 237 9.7
2012-04-10 07:33:00 51°12.419 2°49.255 237.8 12.7 237 9.6
2012-04-10 07:33:05 51°12.409 2°49.231 237.8 12.7 237 9.7
2012-04-10 07:33:10 51°12.399 2°49.208 238.2 12.7 237 9.6
2012-04-10 07:33:15 51°12.39 2°49.184 237.8 12.6 238 9.5
2012-04-10 07:33:20 51°12.381 2°49.161 237.4 12.7 236 9.2
2012-04-10 07:33:25 51°12.371 2°49.137 237 12.7 238 9.4
2012-04-10 07:33:30 51°12.362 2°49.114 238.1 12.6 237 9.3
2012-04-10 07:33:35 51°12.353 2°49.09 238.2 12.6 240 9.4
2012-04-10 07:33:40 51°12.344 2°49.066 239.2 12.7 239 9.5
2012-04-10 07:33:45 51°12.334 2°49.042 239 12.6 238 9.4
2012-04-10 07:33:50 51°12.325 2°49.018 238.9 12.6 239 9.4
2012-04-10 07:33:55 51°12.316 2°48.995 239.2 12.6 238 9.3
2012-04-10 07:34:00 51°12.307 2°48.97 238.9 12.7 241 9.4
2012-04-10 07:34:04 51°12.301 2°48.951 241.1 12.7 242 9.5
2012-04-10 07:34:10 51°12.291 2°48.92 243.2 12.7 244 9.5
2012-04-10 07:34:15 51°12.284 2°48.895 245.2 12.7 245 9.5
2012-04-10 07:34:20 51°12.277 2°48.869 246.3 12.7 245 9.5
2012-04-10 07:34:24 51°12.271 2°48.849 247.2 12.7 247 9.3
2012-04-10 07:34:30 51°12.263 2°48.818 247.8 12.7 247 9.5
2012-04-10 07:34:35 51°12.256 2°48.792 248.4 12.8 247 9.7
2012-04-10 07:34:40 51°12.249 2°48.766 248.4 12.8 247 9.5
2012-04-10 07:34:45 51°12.242 2°48.74 248.3 12.7 246 9.7
2012-04-10 07:34:50 51°12.235 2°48.715 248.3 12.7 246 9.5
2012-04-10 07:34:55 51°12.228 2°48.689 248.2 12.7 246 9.6
2012-04-10 07:35:00 51°12.221 2°48.663 248 12.8 247 9.6
2012-04-10 07:35:04 51°12.216 2°48.642 248.5 12.7 247 9.5
2012-04-10 07:35:10 51°12.207 2°48.611 248.4 12.7 247 9.6
2012-04-10 07:35:15 51°12.2 2°48.585 248.6 12.8 247 9.6
2012-04-10 07:35:20 51°12.193 2°48.56 248.5 12.8 247 9.7
2012-04-10 07:35:25 51°12.186 2°48.534 248.4 12.8 247 9.6
2012-04-10 07:35:30 51°12.179 2°48.508 248.2 12.8 247 9.6
2012-04-10 07:35:35 51°12.172 2°48.482 248.1 12.8 246 9.6
2012-04-10 07:35:40 51°12.165 2°48.456 247.6 12.8 245 9.8
2012-04-10 07:35:45 51°12.157 2°48.431 246.6 12.8 245 9.7
2012-04-10 07:35:50 51°12.15 2°48.405 246.1 12.8 245 9.7
2012-04-10 07:35:55 51°12.143 2°48.379 246.3 12.8 245 9.7
2012-04-10 07:36:00 51°12.135 2°48.353 246.2 12.9 245 9.9
2012-04-10 07:36:05 51°12.127 2°48.328 246.1 12.8 245 9.6
2012-04-10 07:36:10 51°12.119 2°48.302 246 12.9 244 9.6
2012-04-10 07:36:15 51°12.112 2°48.276 245.8 12.9 245 9.6
2012-04-10 07:36:20 51°12.104 2°48.251 246.1 12.9 244 9.5
2012-04-10 07:36:24 51°12.098 2°48.23 245.7 12.9 245 9.7
2012-04-10 07:36:30 51°12.089 2°48.2 245.7 12.9 244 9.8
2012-04-10 07:36:35 51°12.081 2°48.174 245.7 12.9 245 9.7
2012-04-10 07:36:40 51°12.073 2°48.148 245.7 12.9 244 9.7
2012-04-10 07:36:45 51°12.065 2°48.122 245.5 13 245 9.7
2012-04-10 07:36:50 51°12.057 2°48.097 245.4 12.9 243 9.6
2012-04-10 07:36:55 51°12.049 2°48.071 245 12.9 243 9.8
2012-04-10 07:37:00 51°12.041 2°48.046 244.7 12.9 243 9.8
2012-04-10 07:37:05 51°12.033 2°48.02 244 12.9 242 9.6
2012-04-10 07:37:10 51°12.025 2°47.995 243.6 12.9 243 9.5
2012-04-10 07:37:15 51°12.017 2°47.969 244.2 12.9 244 9.9
2012-04-10 07:37:20 51°12.009 2°47.943 245 13 244 9.8
2012-04-10 07:37:25 51°12.001 2°47.918 245.4 12.9 244 9.6
2012-04-10 07:37:30 51°11.994 2°47.892 245.6 13 245 10
2012-04-10 07:37:35 51°11.986 2°47.866 246.3 13 246 9.8
2012-04-10 07:37:40 51°11.979 2°47.84 246.6 13 245 9.8
2012-04-10 07:37:45 51°11.972 2°47.813 246.9 13 247 9.7
2012-04-10 07:37:50 51°11.964 2°47.787 247.4 12.9 246 9.8
2012-04-10 07:37:55 51°11.957 2°47.761 247.6 13 246 9.8
2012-04-10 07:38:00 51°11.95 2°47.735 247.2 13 246 9.7
2012-04-10 07:38:05 51°11.942 2°47.709 247.6 13 246 9.8
2012-04-10 07:38:10 51°11.935 2°47.682 247.8 12.9 246 9.9
2012-04-10 07:38:15 51°11.928 2°47.656 248 13 247 10
2012-04-10 07:38:20 51°11.921 2°47.63 248.3 13 247 9.9
2012-04-10 07:38:24 51°11.916 2°47.609 248.8 13 248 9.8
2012-04-10 07:38:30 51°11.908 2°47.577 249.5 12.9 248 9.7
2012-04-10 07:38:35 51°11.901 2°47.55 249.9 12.9 250 10.1
2012-04-10 07:38:40 51°11.895 2°47.523 250.6 13 249 10
2012-04-10 07:38:44 51°11.89 2°47.501 251.1 13 250 10
2012-04-10 07:38:50 51°11.883 2°47.469 251.9 13 251 9.9
2012-04-10 07:38:55 51°11.877 2°47.442 251.9 13 250 10.1
2012-04-10 07:39:00 51°11.871 2°47.415 252.2 13.1 250 10.1
2012-04-10 07:39:05 51°11.864 2°47.388 251.9 13.1 249 10
2012-04-10 07:39:10 51°11.858 2°47.361 251.4 13.1 250 9.9
2012-04-10 07:39:15 51°11.851 2°47.334 251.2 13.1 249 10
2012-04-10 07:39:20 51°11.845 2°47.307 251.4 13.1 250 10
2012-04-10 07:39:25 51°11.839 2°47.279 252.1 13.1 250 10.1
2012-04-10 07:39:30 51°11.833 2°47.252 252.1 13.1 250 10
2012-04-10 07:39:35 51°11.826 2°47.225 252 13.1 250 10.1
2012-04-10 07:39:40 51°11.82 2°47.198 251.4 13.1 249 9.9
2012-04-10 07:39:45 51°11.813 2°47.171 250.5 13.1 249 9.9
2012-04-10 07:39:50 51°11.807 2°47.144 250.2 13.1 248 10
2012-04-10 07:39:55 51°11.8 2°47.117 249.5 13.1 248 10.2
2012-04-10 07:40:00 51°11.793 2°47.091 249.4 13.1 248 10.1
2012-04-10 07:40:05 51°11.786 2°47.064 248.9 13 248 10.1
2012-04-10 07:40:10 51°11.779 2°47.037 248.9 13 247 10
2012-04-10 07:40:15 51°11.772 2°47.011 248.6 13.1 248 10.2
2012-04-10 07:40:20 51°11.765 2°46.984 248.4 13 246 10.2
2012-04-10 07:40:25 51°11.757 2°46.958 248 13 246 10.2
2012-04-10 07:40:30 51°11.75 2°46.932 247.3 13 246 10.2
2012-04-10 07:40:35 51°11.742 2°46.905 246.9 13.1 245 10.4
2012-04-10 07:40:40 51°11.735 2°46.879 246.6 13.1 245 10.3
2012-04-10 07:40:45 51°11.727 2°46.853 246.1 13.1 245 10.3
2012-04-10 07:40:50 51°11.719 2°46.827 246.1 13 244 10.3
2012-04-10 07:40:55 51°11.712 2°46.801 245.9 13.1 245 10.3
2012-04-10 07:41:00 51°11.704 2°46.775 246.1 13.1 246 10.2
2012-04-10 07:41:04 51°11.699 2°46.754 246.4 13 246 10
2012-04-10 07:41:10 51°11.69 2°46.722 246.8 13.1 246 10.3
2012-04-10 07:41:15 51°11.682 2°46.696 246.9 13.1 246 10.2
2012-04-10 07:41:20 51°11.675 2°46.669 247.3 13.1 246 10.3
2012-04-10 07:41:25 51°11.668 2°46.643 247.6 13.1 247 10.1
2012-04-10 07:41:30 51°11.661 2°46.616 248.1 13.1 248 10.2
2012-04-10 07:41:35 51°11.654 2°46.589 248.6 13.1 249 10.3
2012-04-10 07:41:40 51°11.648 2°46.562 249.7 13.1 249 10.4
2012-04-10 07:41:45 51°11.641 2°46.535 250.4 13.2 249 10.4
2012-04-10 07:41:50 51°11.635 2°46.508 250.8 13.1 251 10.4
2012-04-10 07:41:55 51°11.629 2°46.48 251.9 13.1 249 10.4
2012-04-10 07:42:00 51°11.623 2°46.453 251.6 13.2 251 10.6
2012-04-10 07:42:05 51°11.617 2°46.426 252.2 13.1 251 10.5
2012-04-10 07:42:10 51°11.61 2°46.398 252.4 13.1 250 10.6
2012-04-10 07:42:15 51°11.604 2°46.371 251.9 13.1 250 10.4
2012-04-10 07:42:20 51°11.598 2°46.344 250.9 13.1 248 10.5
2012-04-10 07:42:25 51°11.59 2°46.318 249 13.1 246 10.6
2012-04-10 07:42:30 51°11.583 2°46.292 247.8 13.1 246 10.4
2012-04-10 07:42:35 51°11.575 2°46.266 246.7 13.1 245 10.5
2012-04-10 07:42:40 51°11.568 2°46.239 246.3 13.1 246 10.7
2012-04-10 07:42:45 51°11.56 2°46.213 246.6 13.1 245 10.4
2012-04-10 07:42:50 51°11.553 2°46.186 246.9 13.1 246 10.4
2012-04-10 07:42:55 51°11.546 2°46.16 247 13.1 247 10.5
2012-04-10 07:43:00 51°11.539 2°46.133 247.7 13.1 248 10.6
2012-04-10 07:43:04 51°11.533 2°46.112 248.5 13.1 248 10.5
2012-04-10 07:43:10 51°11.525 2°46.079 249.3 13.1 248 10.7
2012-04-10 07:43:15 51°11.519 2°46.052 250.2 13.1 249 10.5
2012-04-10 07:43:20 51°11.513 2°46.025 250.6 13.1 250 10.3
2012-04-10 07:43:25 51°11.507 2°45.997 251.5 13.1 250 10.6
2012-04-10 07:43:30 51°11.501 2°45.97 251.9 13.1 251 10.4
2012-04-10 07:43:35 51°11.495 2°45.943 252.2 13.1 251 10.3
2012-04-10 07:43:40 51°11.488 2°45.916 252 13.1 250 10.5
2012-04-10 07:43:44 51°11.484 2°45.894 251.8 13.1 250 10.3
2012-04-10 07:43:50 51°11.476 2°45.861 252.2 13.1 250 10.5
2012-04-10 07:43:55 51°11.47 2°45.834 251.8 13.1 250 10.4
2012-04-10 07:44:00 51°11.464 2°45.807 251.5 13.1 250 10.4
2012-04-10 07:44:05 51°11.458 2°45.78 251.4 13.1 250 10.7
2012-04-10 07:44:10 51°11.452 2°45.753 251.4 13.1 251 10.3
2012-04-10 07:44:15 51°11.446 2°45.726 251.8 13.1 251 10.3
2012-04-10 07:44:20 51°11.439 2°45.698 251.7 13.1 250 10.6
2012-04-10 07:44:25 51°11.433 2°45.671 251.7 13.2 250 10.8
2012-04-10 07:44:30 51°11.427 2°45.644 251.9 13.1 251 10.7
2012-04-10 07:44:35 51°11.421 2°45.617 252.1 13.1 251 10.7
2012-04-10 07:44:40 51°11.415 2°45.589 251.9 13.1 250 10.8
2012-04-10 07:44:45 51°11.409 2°45.562 251.8 13.1 250 10.7
2012-04-10 07:44:50 51°11.403 2°45.535 251.3 13.1 250 10.6
2012-04-10 07:44:55 51°11.396 2°45.508 250.8 13 249 10.5
2012-04-10 07:45:00 51°11.39 2°45.481 250.2 13.1 249 10.6
2012-04-10 07:45:05 51°11.383 2°45.454 249.8 13.1 248 10.5
2012-04-10 07:45:10 51°11.376 2°45.428 249.5 13.1 248 10.5
2012-04-10 07:45:15 51°11.369 2°45.401 248.4 13.1 247 10.5
2012-04-10 07:45:20 51°11.361 2°45.375 247.5 13.2 245 10.6
2012-04-10 07:45:24 51°11.355 2°45.353 246.6 13.2 246 10.4
2012-04-10 07:45:30 51°11.346 2°45.322 246.7 13.1 245 10.7
2012-04-10 07:45:35 51°11.338 2°45.296 245.4 13.1 245 10.6
2012-04-10 07:45:40 51°11.33 2°45.27 244.7 13.1 244 10.5
2012-04-10 07:45:44 51°11.324 2°45.249 245 13.1 244 10.6
2012-04-10 07:45:50 51°11.314 2°45.218 244.6 13.1 243 10.7
2012-04-10 07:45:55 51°11.306 2°45.193 243.7 13.1 243 10.5
2012-04-10 07:46:00 51°11.298 2°45.166 243.4 13.1 244 10.4
2012-04-10 07:46:05 51°11.29 2°45.141 243.9 13.1 243 10.4
2012-04-10 07:46:10 51°11.282 2°45.115 243.6 13 243 10.4
2012-04-10 07:46:15 51°11.274 2°45.089 243.4 13 246 10.5
2012-04-10 07:46:20 51°11.266 2°45.063 245 13.1 245 10.4
2012-04-10 07:46:24 51°11.26 2°45.042 245.7 13.1 246 10.5
2012-04-10 07:46:30 51°11.252 2°45.01 246.2 13.1 246 10.6
2012-04-10 07:46:35 51°11.244 2°44.984 247 13 247 10.2
2012-04-10 07:46:40 51°11.238 2°44.957 247.6 13.1 249 10.5
2012-04-10 07:46:45 51°11.232 2°44.93 249.4 13.1 250 10.4
2012-04-10 07:46:50 51°11.226 2°44.903 250.8 13 251 10.2
2012-04-10 07:46:55 51°11.22 2°44.875 252.7 13.1 253 10.4
2012-04-10 07:47:00 51°11.215 2°44.847 253.8 13 253 10.2
2012-04-10 07:47:05 51°11.21 2°44.819 254.7 13.1 255 10.4
2012-04-10 07:47:10 51°11.205 2°44.792 255.6 13.1 254 10.4
2012-04-10 07:47:15 51°11.201 2°44.764 256 13 256 10.5
2012-04-10 07:47:20 51°11.196 2°44.736 256.5 13.1 255 10.4
2012-04-10 07:47:25 51°11.192 2°44.707 256.8 13.1 256 10.4
2012-04-10 07:47:30 51°11.187 2°44.679 257 13.1 255 10.4
2012-04-10 07:47:35 51°11.182 2°44.651 256.5 13.1 256 10.5
2012-04-10 07:47:40 51°11.178 2°44.624 257.1 13 255 10.3
2012-04-10 07:47:44 51°11.174 2°44.601 256.3 13.1 254 10.6
2012-04-10 07:47:50 51°11.168 2°44.568 256.3 13.1 255 10.5
2012-04-10 07:47:55 51°11.162 2°44.541 255.5 13 252 10.4
2012-04-10 07:48:00 51°11.157 2°44.513 253.9 13 252 10.4
2012-04-10 07:48:05 51°11.15 2°44.486 252.2 13.1 250 10.4
2012-04-10 07:48:10 51°11.144 2°44.459 250.9 13.1 249 10.4
2012-04-10 07:48:15 51°11.138 2°44.432 249.8 13 248 10.6
2012-04-10 07:48:20 51°11.131 2°44.405 249.1 13 248 10.2
2012-04-10 07:48:24 51°11.125 2°44.384 248.3 13 247 10.3
2012-04-10 07:48:30 51°11.117 2°44.352 248.1 13.1 247 10.4
2012-04-10 07:48:35 51°11.11 2°44.326 247.5 13.1 248 10.4
2012-04-10 07:48:40 51°11.103 2°44.299 248.2 13 249 10.3
2012-04-10 07:48:45 51°11.097 2°44.272 249.4 13.1 250 10.3
2012-04-10 07:48:50 51°11.091 2°44.245 250.7 13 251 10.3
2012-04-10 07:48:55 51°11.085 2°44.218 251.8 13 251 10.4
2012-04-10 07:49:00 51°11.079 2°44.19 251.9 13.1 250 10.4
2012-04-10 07:49:05 51°11.073 2°44.163 251.3 13 250 10.5
2012-04-10 07:49:10 51°11.066 2°44.137 250.2 13.1 249 10.4
2012-04-10 07:49:15 51°11.06 2°44.109 249.7 13 250 10.2
2012-04-10 07:49:20 51°11.054 2°44.082 250.3 13.1 251 10.4
2012-04-10 07:49:25 51°11.048 2°44.055 251.8 13.1 252 10.5
2012-04-10 07:49:30 51°11.043 2°44.027 253.3 13.1 253 10.5
2012-04-10 07:49:35 51°11.038 2°44 254.4 13 254 10.2
2012-04-10 07:49:40 51°11.033 2°43.972 255 13.1 254 10.3
2012-04-10 07:49:45 51°11.029 2°43.944 255.6 13.1 255 10.4
2012-04-10 07:49:50 51°11.024 2°43.916 256.4 13 255 10.2
2012-04-10 07:49:55 51°11.019 2°43.888 256.7 13.1 255 10.5
2012-04-10 07:50:00 51°11.015 2°43.86 256.6 13.1 256 10.4
2012-04-10 07:50:05 51°11.01 2°43.832 256.5 13.1 255 10.4
2012-04-10 07:50:10 51°11.006 2°43.804 256.3 13 255 10.3
2012-04-10 07:50:15 51°11.001 2°43.776 256.4 13 255 10.7
2012-04-10 07:50:20 51°10.996 2°43.748 256.4 13 255 10.4
2012-04-10 07:50:24 51°10.992 2°43.726 256.1 13.1 255 10.4
2012-04-10 07:50:30 51°10.987 2°43.692 256 13.1 255 10.6
2012-04-10 07:50:35 51°10.981 2°43.665 255.9 13 253 10.4
2012-04-10 07:50:40 51°10.975 2°43.638 253.9 13 251 10.5
2012-04-10 07:50:45 51°10.97 2°43.611 251.8 13 251 10.3
2012-04-10 07:50:50 51°10.963 2°43.584 250.8 13 249 10.5
2012-04-10 07:50:55 51°10.956 2°43.557 249.4 13.1 248 10.6
2012-04-10 07:51:00 51°10.95 2°43.531 248.9 13 248 10.5
2012-04-10 07:51:05 51°10.942 2°43.505 247.6 13 246 10.4
2012-04-10 07:51:10 51°10.935 2°43.478 247.1 13 247 10.5
2012-04-10 07:51:15 51°10.928 2°43.452 247.6 13.1 246 10.6
2012-04-10 07:51:20 51°10.921 2°43.425 247.5 13.1 247 10.4
2012-04-10 07:51:25 51°10.914 2°43.398 247.6 13.1 247 10.5
2012-04-10 07:51:30 51°10.907 2°43.371 248.3 13.1 250 10.5
2012-04-10 07:51:35 51°10.901 2°43.344 249.9 13.1 250 10.4
2012-04-10 07:51:40 51°10.895 2°43.317 251.2 13.1 252 10.3
2012-04-10 07:51:45 51°10.89 2°43.289 252.7 13.1 252 10.4
2012-04-10 07:51:50 51°10.884 2°43.262 253.4 13.1 253 10.4
2012-04-10 07:51:55 51°10.879 2°43.234 254.5 13.1 253 10.5
2012-04-10 07:52:00 51°10.874 2°43.206 254.8 13.1 254 10.4
2012-04-10 07:52:04 51°10.87 2°43.184 255.6 13.1 255 10.4
2012-04-10 07:52:10 51°10.865 2°43.15 256.1 13.1 255 10.4
2012-04-10 07:52:15 51°10.86 2°43.122 256.3 13.1 255 10.3
2012-04-10 07:52:20 51°10.855 2°43.094 256.7 13 255 10.3
2012-04-10 07:52:24 51°10.852 2°43.072 256.6 13.1 255 10.7
2012-04-10 07:52:30 51°10.846 2°43.038 256.5 13.1 255 10.5
2012-04-10 07:52:35 51°10.841 2°43.011 256.5 13.1 255 10.3
2012-04-10 07:52:40 51°10.836 2°42.983 255.9 13.1 254 10.4
2012-04-10 07:52:45 51°10.831 2°42.955 255.3 13.1 254 10.6
2012-04-10 07:52:50 51°10.826 2°42.927 255.2 13.1 254 10.5
2012-04-10 07:52:55 51°10.821 2°42.9 255.5 13.2 254 10.7
2012-04-10 07:53:00 51°10.816 2°42.872 255.5 13.1 253 10.5
2012-04-10 07:53:04 51°10.811 2°42.85 254.6 13.1 253 10.5
2012-04-10 07:53:10 51°10.805 2°42.817 253.7 13.1 252 10.5
2012-04-10 07:53:15 51°10.799 2°42.79 252.9 13.1 251 10.5
2012-04-10 07:53:20 51°10.792 2°42.763 251.2 13.1 248 10.7
2012-04-10 07:53:25 51°10.786 2°42.736 249.9 13.1 250 10.7
2012-04-10 07:53:30 51°10.779 2°42.709 249.9 13.1 249 10.3
2012-04-10 07:53:35 51°10.773 2°42.682 249.7 13.1 249 10.4
2012-04-10 07:53:40 51°10.766 2°42.655 249.4 13.1 249 10.6
2012-04-10 07:53:44 51°10.761 2°42.633 249.7 13.1 250 10.4
2012-04-10 07:53:50 51°10.753 2°42.601 250 13.1 249 10.4
2012-04-10 07:53:55 51°10.747 2°42.574 250.2 13.1 250 10.5
2012-04-10 07:54:00 51°10.741 2°42.546 250.6 13.1 250 10.6
2012-04-10 07:54:05 51°10.735 2°42.519 251.3 13.1 251 10.5
2012-04-10 07:54:10 51°10.729 2°42.492 251.5 13.1 252 10.4
2012-04-10 07:54:15 51°10.723 2°42.464 252.3 13.1 252 10.6
2012-04-10 07:54:20 51°10.718 2°42.437 252.7 13.1 253 10.4
2012-04-10 07:54:24 51°10.713 2°42.415 253.3 13.1 253 10.5
2012-04-10 07:54:30 51°10.707 2°42.381 254 13.1 253 10.5
2012-04-10 07:54:35 51°10.702 2°42.354 254.4 13.1 254 10.7
2012-04-10 07:54:40 51°10.697 2°42.326 254.9 13.1 254 10.5
2012-04-10 07:54:44 51°10.692 2°42.304 254.8 13.1 253 10.6
2012-04-10 07:54:50 51°10.686 2°42.27 254.6 13.1 253 10.6
2012-04-10 07:54:55 51°10.68 2°42.243 254.3 13.1 253 10.6
2012-04-10 07:55:00 51°10.675 2°42.215 254.2 13.1 252 10.6
2012-04-10 07:55:05 51°10.669 2°42.188 253.7 13.1 252 10.6
2012-04-10 07:55:10 51°10.664 2°42.161 253.2 13.1 252 10.4
2012-04-10 07:55:15 51°10.658 2°42.133 252.8 13.1 252 10.8
2012-04-10 07:55:20 51°10.652 2°42.106 252.8 13.1 252 10.6
2012-04-10 07:55:25 51°10.647 2°42.078 253 13.1 252 10.5
2012-04-10 07:55:30 51°10.641 2°42.051 252.9 13.1 251 10.5
2012-04-10 07:55:35 51°10.635 2°42.024 252.5 13.1 251 10.5
2012-04-10 07:55:40 51°10.628 2°41.997 251.2 13.2 249 10.7
2012-04-10 07:55:45 51°10.622 2°41.969 250.2 13.1 250 10.5
2012-04-10 07:55:50 51°10.615 2°41.943 249.8 13.1 248 10.5
2012-04-10 07:55:55 51°10.608 2°41.915 249.3 13.1 249 10.5
2012-04-10 07:56:00 51°10.602 2°41.889 249.2 13.1 249 10.4
2012-04-10 07:56:05 51°10.595 2°41.862 249.4 13.1 249 10.7
2012-04-10 07:56:10 51°10.589 2°41.835 249.2 13.1 249 10.4
2012-04-10 07:56:15 51°10.583 2°41.807 249.7 13.2 250 10.6
2012-04-10 07:56:20 51°10.576 2°41.78 250.2 13.2 250 10.6
2012-04-10 07:56:25 51°10.57 2°41.753 250.8 13.1 251 10.6
2012-04-10 07:56:30 51°10.565 2°41.725 251.3 13.1 252 10.5
2012-04-10 07:56:35 51°10.559 2°41.698 251.8 13.1 252 10.6
2012-04-10 07:56:40 51°10.554 2°41.67 252.7 13.1 253 10.7
2012-04-10 07:56:45 51°10.549 2°41.642 253.9 13.1 254 10.8
2012-04-10 07:56:50 51°10.544 2°41.614 254.2 13.1 254 10.7
2012-04-10 07:56:55 51°10.539 2°41.587 254.5 13.1 254 10.5
2012-04-10 07:57:00 51°10.534 2°41.559 254.8 13.1 255 10.5
2012-04-10 07:57:05 51°10.529 2°41.531 255 13.1 254 10.5
2012-04-10 07:57:10 51°10.524 2°41.503 255 13.1 255 10.5
2012-04-10 07:57:15 51°10.519 2°41.475 255.2 13.1 255 10.6
2012-04-10 07:57:20 51°10.514 2°41.447 255.4 13.1 255 10.6
2012-04-10 07:57:24 51°10.511 2°41.425 255.6 13.1 254 10.6
2012-04-10 07:57:30 51°10.504 2°41.392 255.5 13.1 254 10.9
2012-04-10 07:57:35 51°10.499 2°41.365 254.5 13.1 253 10.8
2012-04-10 07:57:40 51°10.493 2°41.337 254 13.1 252 10.8
2012-04-10 07:57:45 51°10.487 2°41.31 252 13.1 250 10.7
2012-04-10 07:57:50 51°10.481 2°41.283 250.7 13.1 250 10.8
2012-04-10 07:57:55 51°10.474 2°41.256 250 13.2 249 10.7
2012-04-10 07:58:00 51°10.467 2°41.229 249 13.2 248 10.6
2012-04-10 07:58:05 51°10.46 2°41.202 247.7 13.1 247 10.4
2012-04-10 07:58:10 51°10.453 2°41.175 247.6 13.1 247 10.6
2012-04-10 07:58:15 51°10.446 2°41.148 246.9 13.1 247 10.8
2012-04-10 07:58:20 51°10.439 2°41.122 246.7 13 247 10.5
2012-04-10 07:58:25 51°10.431 2°41.096 246.8 13.1 247 10.7
2012-04-10 07:58:30 51°10.425 2°41.069 247.8 13.1 248 10.8
2012-04-10 07:58:35 51°10.418 2°41.042 248.2 13.1 248 10.8
2012-04-10 07:58:40 51°10.412 2°41.015 249 13 251 10.7
2012-04-10 07:58:44 51°10.407 2°40.994 250.1 13 251 10.6
2012-04-10 07:58:50 51°10.4 2°40.96 251.3 13.1 252 10.7
2012-04-10 07:58:55 51°10.395 2°40.933 252.3 13 254 10.6
2012-04-10 07:59:00 51°10.39 2°40.905 253.7 13.1 254 10.8
2012-04-10 07:59:05 51°10.386 2°40.877 254.8 13 255 10.7
2012-04-10 07:59:10 51°10.381 2°40.849 255.2 13.1 255 10.7
2012-04-10 07:59:15 51°10.376 2°40.821 255.7 13.1 256 10.8
2012-04-10 07:59:20 51°10.371 2°40.793 256.3 13.1 254 11
2012-04-10 07:59:24 51°10.368 2°40.771 255.7 13 254 10.7
2012-04-10 07:59:30 51°10.361 2°40.738 254.5 13.1 253 10.7